Tenryu Maru — JD2289 — position and weather

sailwx.info

Track history (hours):
 
Tides and Currents Weather Stations Pressure Air Temp Water Temp Dewpoint Dewpoint Depression Visibility Wind Speed Wind Dir Waves Ship Positions

Tenryu Maru

Last reported at 2018-Jun-25 09:29 UTC. Time now 2018-Jun-25 09:28 UTC.
Position N 35°27' E 139°40'.

Length 34 m; draft 3.8 m.

Type: Tug. MMSI: 431101149.

Date/timePositionNaut miles runAvg speedWind from/ knotsBaromVisibWave heightAir tempDewpointWater temp
2018-Jun-25 09:29N 35°27' E 139°40'0 0.0
2018-Jun-25 09:00N 35°27' E 139°40'2 4.2
2018-Jun-25 08:30N 35°29' E 139°40'0 0.1
2018-Jun-25 08:00N 35°29' E 139°40'3 5.6
2018-Jun-25 07:30N 35°27' E 139°43'4 8.7
2018-Jun-25 07:00N 35°30' E 139°48'2 4.0
2018-Jun-25 06:30N 35°30' E 139°45'1 1.3
2018-Jun-25 05:59N 35°30' E 139°46'0 0.0
2018-Jun-25 05:18N 35°30' E 139°46'0 0.0
2018-Jun-25 04:48N 35°30' E 139°46'1 2.7
2018-Jun-25 04:30N 35°31' E 139°46'1 3.1
2018-Jun-25 04:00N 35°30' E 139°45'3 5.9
2018-Jun-25 03:30N 35°28' E 139°42'1 2.6
2018-Jun-25 03:00N 35°28' E 139°44'3 5.5
2018-Jun-25 02:30N 35°28' E 139°41'0 0.1
2018-Jun-25 02:00N 35°28' E 139°41'0 0.0
2018-Jun-25 01:30N 35°28' E 139°41'0 0.0
2018-Jun-25 01:00N 35°28' E 139°41'0 0.0
2018-Jun-25 00:30N 35°28' E 139°41'0 0.0
2018-Jun-25 00:00N 35°28' E 139°41'0 0.0
2018-Jun-24 23:30N 35°28' E 139°41'1 1.9
2018-Jun-24 23:00N 35°27' E 139°41'2 3.3
2018-Jun-24 22:30N 35°25' E 139°41'1 2.7
2018-Jun-24 22:00N 35°25' E 139°42'3 5.2
2018-Jun-24 21:31N 35°27' E 139°41'0 0.7
2018-Jun-24 21:00N 35°27' E 139°40'0 0.0
2018-Jun-24 20:28N 35°27' E 139°40'0 0.0
2018-Jun-24 20:00N 35°27' E 139°40'0 0.0
2018-Jun-24 19:30N 35°27' E 139°40'0 0.0
2018-Jun-24 19:00N 35°27' E 139°40'0 0.0
2018-Jun-24 18:30N 35°27' E 139°40'0 0.0
2018-Jun-24 18:00N 35°27' E 139°40'0 0.0
2018-Jun-24 17:29N 35°27' E 139°40'0 0.0
2018-Jun-24 17:00N 35°27' E 139°40'0 0.0
2018-Jun-24 16:27N 35°27' E 139°40'0 0.0
2018-Jun-24 16:00N 35°27' E 139°40'0 0.0
2018-Jun-24 15:29N 35°27' E 139°40'0 0.0
2018-Jun-24 15:00N 35°27' E 139°40'0 0.0
2018-Jun-24 14:30N 35°27' E 139°40'0 0.0
2018-Jun-24 13:59N 35°27' E 139°40'0 0.0
2018-Jun-24 13:30N 35°27' E 139°40'0 0.0
2018-Jun-24 13:00N 35°27' E 139°40'0 0.0
2018-Jun-24 12:30N 35°27' E 139°40'0 0.0
2018-Jun-24 12:00N 35°27' E 139°40'0 0.0
2018-Jun-24 11:30N 35°27' E 139°40'0 0.0
2018-Jun-24 11:00N 35°27' E 139°40'0 0.0
2018-Jun-24 10:29N 35°27' E 139°40'0 0.0
2018-Jun-24 10:00N 35°27' E 139°40'0 0.0
2018-Jun-24 09:30N 35°27' E 139°40'0 0.0
2018-Jun-24 08:58N 35°27' E 139°40'0 0.0
2018-Jun-24 08:30N 35°27' E 139°40'0 0.0
2018-Jun-24 08:00N 35°27' E 139°40'0 0.0
2018-Jun-24 07:30N 35°27' E 139°40'0 0.0
2018-Jun-24 07:00N 35°27' E 139°40'0 0.0
2018-Jun-24 06:30N 35°27' E 139°40'0 0.0
2018-Jun-24 06:00N 35°27' E 139°40'0 0.0
2018-Jun-24 05:30N 35°27' E 139°40'0 0.0
2018-Jun-24 05:00N 35°27' E 139°40'0 0.0
2018-Jun-24 04:30N 35°27' E 139°40'0 0.0
2018-Jun-24 03:59N 35°27' E 139°40'0 0.0
2018-Jun-24 03:30N 35°27' E 139°40'0 0.0
2018-Jun-24 02:58N 35°27' E 139°40'0 0.0
2018-Jun-24 02:30N 35°27' E 139°40'1 2.0
2018-Jun-24 02:00N 35°27' E 139°41'1 1.0
2018-Jun-24 01:30N 35°27' E 139°42'1 2.6
2018-Jun-24 01:00N 35°26' E 139°42'3 5.1
2018-Jun-24 00:30N 35°28' E 139°40'0 0.0
2018-Jun-24 00:00N 35°28' E 139°40'0 0.0
2018-Jun-23 23:30N 35°28' E 139°40'1 1.6
2018-Jun-23 23:00N 35°27' E 139°39'1 3.0
2018-Jun-23 22:30N 35°28' E 139°41'0 0.9
2018-Jun-23 22:00N 35°28' E 139°41'1 2.0
2018-Jun-23 21:30N 35°28' E 139°42'2 3.7
2018-Jun-23 20:59N 35°27' E 139°40'0 0.0
2018-Jun-23 20:30N 35°27' E 139°40'0 0.0
2018-Jun-23 20:00N 35°27' E 139°40'0 0.0
2018-Jun-23 19:30N 35°27' E 139°40'0 0.0
2018-Jun-23 19:00N 35°27' E 139°40'0 0.0
2018-Jun-23 18:28N 35°27' E 139°40'0 0.0
2018-Jun-23 18:00N 35°27' E 139°40'0 0.0
2018-Jun-23 17:30N 35°27' E 139°40'0 0.0
2018-Jun-23 17:00N 35°27' E 139°40'0 0.0
2018-Jun-23 16:28N 35°27' E 139°40'0 0.0
2018-Jun-23 16:00N 35°27' E 139°40'0 0.0
2018-Jun-23 15:30N 35°27' E 139°40'0 0.0
2018-Jun-23 15:00N 35°27' E 139°40'0 0.0
2018-Jun-23 14:29N 35°27' E 139°40'0 0.0
2018-Jun-23 14:00N 35°27' E 139°40'0 0.0
2018-Jun-23 13:30N 35°27' E 139°40'0 0.0
2018-Jun-23 13:00N 35°27' E 139°40'0 0.0
2018-Jun-23 12:30N 35°27' E 139°40'0 0.0
2018-Jun-23 12:00N 35°27' E 139°40'0 0.0
2018-Jun-23 11:30N 35°27' E 139°40'0 0.0
2018-Jun-23 11:00N 35°27' E 139°40'0 0.0
2018-Jun-23 10:30N 35°27' E 139°40'0 0.0
2018-Jun-23 10:00N 35°27' E 139°40'0 0.0
2018-Jun-23 09:30N 35°27' E 139°40'1 1.3
2018-Jun-23 09:00N 35°27' E 139°41'1 2.5
2018-Jun-23 08:30N 35°26' E 139°43'1 2.3
2018-Jun-23 08:00N 35°25' E 139°43'3 6.6
2018-Jun-23 07:30N 35°28' E 139°40'0 0.0
2018-Jun-23 07:00N 35°28' E 139°40'0 0.0
2018-Jun-23 06:30N 35°28' E 139°40'0 0.0
2018-Jun-23 05:59N 35°28' E 139°40'0 0.0
2018-Jun-23 05:30N 35°28' E 139°40'0 0.0
2018-Jun-23 04:58N 35°28' E 139°40'1 2.1
2018-Jun-23 04:30N 35°27' E 139°39'1 1.4
2018-Jun-23 04:00N 35°27' E 139°40'611.1
2018-Jun-23 03:30N 35°28' E 139°47'611.1
2018-Jun-23 02:59N 35°31' E 139°53'2 2.0
2018-Jun-23 01:46N 35°31' E 139°56'0 1.2
2018-Jun-23 01:30N 35°31' E 139°56'2 3.2
2018-Jun-23 00:59N 35°30' E 139°54'5 5.2
2018-Jun-23 00:06N 35°27' E 139°49'212.2
2018-Jun-22 23:56N 35°27' E 139°47'511.6
2018-Jun-22 23:30N 35°27' E 139°41'1 1.2
2018-Jun-22 22:59N 35°27' E 139°40'0 0.0
2018-Jun-22 22:30N 35°27' E 139°40'0 0.0
2018-Jun-22 21:59N 35°27' E 139°40'0 0.0
2018-Jun-22 21:29N 35°27' E 139°40'0 0.0
2018-Jun-22 21:00N 35°27' E 139°40'0 0.0
2018-Jun-22 20:29N 35°27' E 139°40'0 0.0
2018-Jun-22 20:00N 35°27' E 139°40'0 0.0
2018-Jun-22 19:30N 35°27' E 139°40'0 0.0
2018-Jun-22 19:00N 35°27' E 139°40'0 0.0
2018-Jun-22 18:30N 35°27' E 139°40'0 0.0
2018-Jun-22 18:00N 35°27' E 139°40'0 0.0
2018-Jun-22 17:29N 35°27' E 139°40'0 0.0
2018-Jun-22 17:00N 35°27' E 139°40'0 0.0
2018-Jun-22 16:30N 35°27' E 139°40'0 0.0
2018-Jun-22 16:00N 35°27' E 139°40'0 0.0
2018-Jun-22 15:30N 35°27' E 139°40'0 0.0
2018-Jun-22 15:00N 35°27' E 139°40'0 0.0
2018-Jun-22 14:30N 35°27' E 139°40'0 0.0
2018-Jun-22 13:59N 35°27' E 139°40'0 0.0
2018-Jun-22 13:30N 35°27' E 139°40'0 0.0
2018-Jun-22 13:00N 35°27' E 139°40'0 0.0
2018-Jun-22 12:30N 35°27' E 139°40'0 0.0
2018-Jun-22 12:00N 35°27' E 139°40'0 0.0
2018-Jun-22 11:30N 35°27' E 139°40'0 0.0
2018-Jun-22 11:00N 35°27' E 139°40'1 1.1
2018-Jun-22 10:30N 35°26' E 139°41'1 1.3
2018-Jun-22 10:00N 35°27' E 139°42'2 3.6
2018-Jun-22 09:30N 35°26' E 139°44'1 1.5
2018-Jun-22 09:00N 35°26' E 139°45'2 4.1
2018-Jun-22 08:30N 35°27' E 139°42'0 0.0
2018-Jun-22 08:00N 35°27' E 139°42'4 7.5
2018-Jun-22 07:30N 35°23' E 139°41'1 2.2
2018-Jun-22 07:00N 35°24' E 139°40'0 0.1
2018-Jun-22 06:30N 35°24' E 139°40'1 1.6
2018-Jun-22 06:00N 35°23' E 139°40'0 0.5
2018-Jun-22 05:30N 35°24' E 139°39'1 2.6
2018-Jun-22 05:00N 35°24' E 139°38'0 0.1
2018-Jun-22 04:30N 35°24' E 139°38'3 6.4
2018-Jun-22 04:00N 35°25' E 139°42'3 6.2
2018-Jun-22 03:31N 35°27' E 139°39'1 2.1
2018-Jun-22 03:00N 35°27' E 139°40'0 0.0
2018-Jun-22 02:30N 35°27' E 139°40'0 0.0
2018-Jun-22 02:00N 35°27' E 139°40'0 0.0
2018-Jun-22 01:30N 35°27' E 139°40'0 0.0
2018-Jun-22 01:00N 35°27' E 139°40'0 0.0
2018-Jun-22 00:30N 35°27' E 139°40'0 0.0
2018-Jun-22 00:00N 35°27' E 139°40'0 0.0
2018-Jun-21 23:30N 35°27' E 139°40'0 0.0
2018-Jun-21 22:58N 35°27' E 139°40'0 0.0
2018-Jun-21 22:30N 35°27' E 139°40'0 0.0
2018-Jun-21 22:00N 35°27' E 139°40'0 0.0
2018-Jun-21 21:30N 35°27' E 139°40'0 0.0
2018-Jun-21 21:00N 35°27' E 139°40'0 0.0
2018-Jun-21 20:30N 35°27' E 139°40'0 0.0
2018-Jun-21 20:00N 35°27' E 139°40'0 0.0
2018-Jun-21 19:30N 35°27' E 139°40'0 0.0
2018-Jun-21 19:01N 35°27' E 139°40'0 0.0
2018-Jun-21 18:30N 35°27' E 139°40'0 0.0
2018-Jun-21 18:00N 35°27' E 139°40'0 0.0
2018-Jun-21 17:30N 35°27' E 139°40'0 0.0
2018-Jun-21 17:00N 35°27' E 139°40'0 0.0
2018-Jun-21 16:31N 35°27' E 139°40'0 0.0
2018-Jun-21 16:00N 35°27' E 139°40'0 0.0
2018-Jun-21 15:30N 35°27' E 139°40'0 0.0
2018-Jun-21 15:00N 35°27' E 139°40'0 0.0
2018-Jun-21 14:30N 35°27' E 139°40'0 0.0
2018-Jun-21 14:00N 35°27' E 139°40'0 0.0
2018-Jun-21 13:31N 35°27' E 139°40'0 0.0
2018-Jun-21 13:00N 35°27' E 139°40'0 0.0
2018-Jun-21 12:30N 35°27' E 139°40'0 0.0
2018-Jun-21 12:00N 35°27' E 139°40'0 0.0
2018-Jun-21 11:30N 35°27' E 139°40'0 0.0
2018-Jun-21 11:00N 35°27' E 139°40'0 0.0
2018-Jun-21 10:30N 35°27' E 139°40'0 0.0
2018-Jun-21 10:00N 35°27' E 139°40'0 0.0
2018-Jun-21 09:30N 35°27' E 139°40'0 0.0
2018-Jun-21 08:58N 35°27' E 139°40'0 0.0
2018-Jun-21 08:30N 35°27' E 139°40'0 0.0
2018-Jun-21 08:00N 35°27' E 139°40'0 0.0
2018-Jun-21 07:30N 35°27' E 139°40'0 0.0
2018-Jun-21 07:00N 35°27' E 139°40'0 0.0
2018-Jun-21 06:31N 35°27' E 139°40'0 0.0
2018-Jun-21 06:00N 35°27' E 139°40'0 0.0
2018-Jun-21 05:30N 35°27' E 139°40'0 0.0
2018-Jun-21 05:00N 35°27' E 139°40'0 0.0
2018-Jun-21 04:30N 35°27' E 139°40'0 0.0
2018-Jun-21 04:00N 35°27' E 139°40'0 0.0
2018-Jun-21 03:30N 35°27' E 139°40'0 0.0
2018-Jun-21 03:00N 35°27' E 139°40'2 3.2
2018-Jun-21 02:30N 35°28' E 139°40'0 0.0
2018-Jun-21 02:00N 35°28' E 139°40'0 0.0
2018-Jun-21 01:31N 35°28' E 139°40'0 0.5
2018-Jun-21 01:00N 35°28' E 139°40'2 3.4
2018-Jun-21 00:31N 35°27' E 139°41'0 0.1
2018-Jun-21 00:00N 35°27' E 139°41'1 2.1
2018-Jun-20 23:30N 35°27' E 139°40'1 2.1
2018-Jun-20 23:01N 35°28' E 139°41'0 0.5
2018-Jun-20 22:30N 35°28' E 139°41'0 0.7
2018-Jun-20 22:01N 35°28' E 139°41'1 1.8
2018-Jun-20 21:30N 35°28' E 139°42'1 1.6
2018-Jun-20 21:00N 35°27' E 139°42'0 0.0
2018-Jun-20 20:30N 35°27' E 139°42'0 0.6
2018-Jun-20 20:00N 35°27' E 139°42'1 1.3
2018-Jun-20 19:30N 35°26' E 139°41'0 0.6
2018-Jun-20 19:00N 35°27' E 139°41'0 0.0
2018-Jun-20 18:30N 35°27' E 139°41'0 0.0
2018-Jun-20 17:56N 35°27' E 139°41'0 0.0
2018-Jun-20 17:31N 35°27' E 139°41'0 0.0
2018-Jun-20 17:00N 35°27' E 139°41'0 0.0
2018-Jun-20 16:30N 35°27' E 139°41'0 0.0
2018-Jun-20 16:00N 35°27' E 139°41'0 0.0
2018-Jun-20 15:30N 35°27' E 139°41'0 0.0
2018-Jun-20 15:00N 35°27' E 139°41'0 0.3
2018-Jun-20 14:30N 35°27' E 139°41'0 0.3
2018-Jun-20 14:00N 35°27' E 139°41'0 0.0
2018-Jun-20 13:30N 35°27' E 139°41'0 0.0
2018-Jun-20 13:00N 35°27' E 139°41'0 0.0
2018-Jun-20 12:30N 35°27' E 139°41'0 0.0
2018-Jun-20 11:59N 35°27' E 139°41'0 0.0
2018-Jun-20 11:30N 35°27' E 139°41'0 0.7
2018-Jun-20 11:00N 35°26' E 139°41'2 3.4
2018-Jun-20 10:30N 35°26' E 139°43'1 2.4
2018-Jun-20 10:00N 35°26' E 139°44'3 6.7
2018-Jun-20 09:29N 35°28' E 139°41'0 0.0
2018-Jun-20 09:00N 35°28' E 139°41'0 0.7
2018-Jun-20 08:30N 35°27' E 139°40'1 2.6
2018-Jun-20 08:00N 35°27' E 139°39'0 0.1
2018-Jun-20 07:30N 35°27' E 139°39'1 1.1
2018-Jun-20 07:00N 35°27' E 139°39'4 8.0
2018-Jun-20 06:30N 35°24' E 139°42'2 4.8
2018-Jun-20 06:01N 35°24' E 139°39'1 1.1
2018-Jun-20 05:30N 35°24' E 139°38'0 0.0
2018-Jun-20 05:00N 35°24' E 139°38'2 4.3
2018-Jun-20 04:30N 35°23' E 139°41'3 6.6
2018-Jun-20 04:00N 35°27' E 139°40'0 0.0
2018-Jun-20 03:30N 35°27' E 139°40'0 0.0
2018-Jun-20 03:00N 35°27' E 139°40'0 0.0
2018-Jun-20 02:30N 35°27' E 139°40'0 0.0
2018-Jun-20 02:00N 35°27' E 139°40'0 0.0
2018-Jun-20 01:29N 35°27' E 139°40'0 0.0
2018-Jun-20 00:58N 35°27' E 139°40'0 0.0
2018-Jun-20 00:30N 35°27' E 139°40'0 0.0
2018-Jun-20 00:00N 35°27' E 139°40'0 0.0
2018-Jun-19 23:30N 35°27' E 139°40'0 0.0
2018-Jun-19 23:00N 35°27' E 139°40'0 0.0
2018-Jun-19 22:30N 35°27' E 139°40'0 0.0
2018-Jun-19 21:59N 35°27' E 139°40'0 0.0
2018-Jun-19 21:31N 35°27' E 139°40'0 0.0
2018-Jun-19 21:00N 35°27' E 139°40'0 0.0
2018-Jun-19 20:30N 35°27' E 139°40'0 0.0
2018-Jun-19 20:00N 35°27' E 139°40'0 0.0
2018-Jun-19 19:30N 35°27' E 139°40'0 0.0
2018-Jun-19 19:00N 35°27' E 139°40'0 0.0
2018-Jun-19 18:29N 35°27' E 139°40'0 0.0
2018-Jun-19 18:00N 35°27' E 139°40'0 0.0
2018-Jun-19 17:30N 35°27' E 139°40'0 0.0
2018-Jun-19 17:00N 35°27' E 139°40'0 0.0
2018-Jun-19 16:30N 35°27' E 139°40'0 0.0
2018-Jun-19 16:00N 35°27' E 139°40'0 0.0
2018-Jun-19 15:30N 35°27' E 139°40'0 0.0
2018-Jun-19 15:00N 35°27' E 139°40'0 0.0
2018-Jun-19 14:30N 35°27' E 139°40'0 0.0
2018-Jun-19 14:00N 35°27' E 139°40'0 0.0
2018-Jun-19 13:30N 35°27' E 139°40'0 0.0
2018-Jun-19 13:00N 35°27' E 139°40'0 0.0
2018-Jun-19 12:30N 35°27' E 139°40'0 0.0
2018-Jun-19 11:59N 35°27' E 139°40'0 0.0
2018-Jun-19 11:30N 35°27' E 139°40'0 0.0
2018-Jun-19 11:00N 35°27' E 139°40'0 0.0
2018-Jun-19 10:30N 35°27' E 139°40'0 0.0
2018-Jun-19 10:00N 35°27' E 139°40'0 0.0
2018-Jun-19 09:30N 35°27' E 139°40'0 0.0
2018-Jun-19 09:00N 35°27' E 139°40'0 0.0
2018-Jun-19 08:30N 35°27' E 139°40'0 0.0
2018-Jun-19 08:00N 35°27' E 139°40'0 0.0
2018-Jun-19 07:28N 35°27' E 139°40'1 1.9
2018-Jun-19 07:00N 35°28' E 139°40'611.0
2018-Jun-19 06:30N 35°31' E 139°46'1 1.5
2018-Jun-19 06:00N 35°31' E 139°46'2 5.0
2018-Jun-19 05:31N 35°30' E 139°44'3 5.3
2018-Jun-19 05:01N 35°27' E 139°43'1 1.8
2018-Jun-19 04:31N 35°28' E 139°44'510.0
2018-Jun-19 04:01N 35°23' E 139°41'2 4.4
2018-Jun-19 03:30N 35°24' E 139°38'0 0.0
2018-Jun-19 03:00N 35°24' E 139°38'0 0.0
2018-Jun-19 02:30N 35°24' E 139°38'1 1.9
2018-Jun-19 02:01N 35°24' E 139°39'3 5.3
2018-Jun-19 01:30N 35°22' E 139°42'1 2.9
2018-Jun-19 01:00N 35°24' E 139°42'4 7.0
2018-Jun-19 00:30N 35°27' E 139°42'0 0.0
2018-Jun-19 00:00N 35°27' E 139°42'0 0.0
2018-Jun-18 23:31N 35°27' E 139°42'0 0.0
2018-Jun-18 23:01N 35°27' E 139°42'3 5.4
2018-Jun-18 22:31N 35°28' E 139°39'0 0.9
2018-Jun-18 22:01N 35°28' E 139°40'3 6.0
2018-Jun-18 21:30N 35°26' E 139°43'1 2.4
2018-Jun-18 21:00N 35°25' E 139°43'3 4.9
2018-Jun-18 20:30N 35°27' E 139°40'0 0.0
2018-Jun-18 20:00N 35°27' E 139°40'0 0.0
2018-Jun-18 19:30N 35°27' E 139°40'0 0.0
2018-Jun-18 19:00N 35°27' E 139°40'0 0.0
2018-Jun-18 18:30N 35°27' E 139°40'0 0.0
2018-Jun-18 18:00N 35°27' E 139°40'0 0.0
2018-Jun-18 17:30N 35°27' E 139°40'0 0.0
2018-Jun-18 17:00N 35°27' E 139°40'0 0.0
2018-Jun-18 16:30N 35°27' E 139°40'0 0.0
2018-Jun-18 16:00N 35°27' E 139°40'0 0.0
2018-Jun-18 15:30N 35°27' E 139°40'0 0.0
2018-Jun-18 15:00N 35°27' E 139°40'0 0.0
2018-Jun-18 14:30N 35°27' E 139°40'0 0.0
2018-Jun-18 13:58N 35°27' E 139°40'0 0.0
2018-Jun-18 13:28N 35°27' E 139°40'0 0.0
2018-Jun-18 13:00N 35°27' E 139°40'0 0.0
2018-Jun-18 12:30N 35°27' E 139°40'0 0.0
2018-Jun-18 12:00N 35°27' E 139°40'0 0.0
2018-Jun-18 11:30N 35°27' E 139°40'0 0.0
2018-Jun-18 11:00N 35°27' E 139°40'0 0.0
2018-Jun-18 10:30N 35°27' E 139°40'0 0.0
2018-Jun-18 10:00N 35°27' E 139°40'0 0.0
2018-Jun-18 09:30N 35°27' E 139°40'0 0.0
2018-Jun-18 09:00N 35°27' E 139°40'0 0.0
2018-Jun-18 08:30N 35°27' E 139°40'0 0.0
2018-Jun-18 08:00N 35°27' E 139°40'1 1.6
2018-Jun-18 07:30N 35°27' E 139°40'4 7.5
2018-Jun-18 07:00N 35°24' E 139°40'0 0.7
2018-Jun-18 06:30N 35°24' E 139°41'0 0.1
2018-Jun-18 06:00N 35°24' E 139°41'1 2.5
2018-Jun-18 05:30N 35°25' E 139°42'2 4.5
2018-Jun-18 05:00N 35°27' E 139°41'0 0.0
2018-Jun-18 04:30N 35°27' E 139°41'0 0.0
2018-Jun-18 04:00N 35°27' E 139°41'0 0.0
2018-Jun-18 03:30N 35°27' E 139°41'0 0.0
2018-Jun-18 03:00N 35°27' E 139°41'2 4.5
2018-Jun-18 02:30N 35°25' E 139°42'2 4.8
2018-Jun-18 02:00N 35°25' E 139°39'0 0.2
2018-Jun-18 01:30N 35°24' E 139°39'1 2.2
2018-Jun-18 01:00N 35°24' E 139°40'3 6.1
2018-Jun-18 00:31N 35°21' E 139°42'3 5.4
2018-Jun-18 00:00N 35°24' E 139°42'3 5.9
2018-Jun-17 23:30N 35°27' E 139°40'0 0.0
2018-Jun-17 23:00N 35°27' E 139°40'0 0.0
2018-Jun-17 22:30N 35°27' E 139°40'0 0.0
2018-Jun-17 22:00N 35°27' E 139°40'0 0.0
2018-Jun-17 21:30N 35°27' E 139°40'0 0.0
2018-Jun-17 21:00N 35°27' E 139°40'0 0.0
2018-Jun-17 20:30N 35°27' E 139°40'0 0.0
2018-Jun-17 20:00N 35°27' E 139°40'0 0.0
2018-Jun-17 19:30N 35°27' E 139°40'0 0.0
2018-Jun-17 19:00N 35°27' E 139°40'0 0.0
2018-Jun-17 18:30N 35°27' E 139°40'0 0.0
2018-Jun-17 18:00N 35°27' E 139°40'0 0.0
2018-Jun-17 17:30N 35°27' E 139°40'0 0.0
2018-Jun-17 17:00N 35°27' E 139°40'0 0.0
2018-Jun-17 16:30N 35°27' E 139°40'0 0.0
2018-Jun-17 16:00N 35°27' E 139°40'0 0.0
2018-Jun-17 15:30N 35°27' E 139°40'0 0.0
2018-Jun-17 15:00N 35°27' E 139°40'0 0.0
2018-Jun-17 14:30N 35°27' E 139°40'0 0.0
2018-Jun-17 13:59N 35°27' E 139°40'0 0.0
2018-Jun-17 13:30N 35°27' E 139°40'0 0.0
2018-Jun-17 13:00N 35°27' E 139°40'0 0.0
2018-Jun-17 12:30N 35°27' E 139°40'0 0.0
2018-Jun-17 12:00N 35°27' E 139°40'0 0.0
2018-Jun-17 11:30N 35°27' E 139°40'0 0.0
2018-Jun-17 11:00N 35°27' E 139°40'0 0.0
2018-Jun-17 10:30N 35°27' E 139°40'0 0.0
2018-Jun-17 10:00N 35°27' E 139°40'0 0.0
2018-Jun-17 09:30N 35°27' E 139°40'1 2.8
2018-Jun-17 09:00N 35°27' E 139°42'1 2.8
2018-Jun-17 08:30N 35°28' E 139°41'1 2.3
2018-Jun-17 08:00N 35°28' E 139°41'0 0.0
2018-Jun-17 07:30N 35°28' E 139°41'0 0.0
2018-Jun-17 07:00N 35°28' E 139°41'0 0.0
2018-Jun-17 06:30N 35°28' E 139°41'0 0.0
2018-Jun-17 06:00N 35°28' E 139°41'1 2.0
2018-Jun-17 05:30N 35°27' E 139°39'0 0.0
2018-Jun-17 05:00N 35°27' E 139°39'3 6.7
2018-Jun-17 04:30N 35°28' E 139°43'1 1.9
2018-Jun-17 03:59N 35°28' E 139°44'0 0.1
2018-Jun-17 03:29N 35°28' E 139°44'0 0.5
2018-Jun-17 02:59N 35°28' E 139°44'1 3.0
2018-Jun-17 02:30N 35°27' E 139°45'1 2.5
2018-Jun-17 02:00N 35°28' E 139°45'0 0.8
2018-Jun-17 01:30N 35°28' E 139°45'0 0.0
2018-Jun-17 01:00N 35°28' E 139°45'0 0.0
2018-Jun-17 00:30N 35°28' E 139°45'2 4.7
2018-Jun-17 00:00N 35°30' E 139°47'2 3.0
2018-Jun-16 23:30N 35°30' E 139°45'4 8.5
2018-Jun-16 23:00N 35°28' E 139°40'1 2.8
2018-Jun-16 22:30N 35°27' E 139°40'0 0.0
2018-Jun-16 22:00N 35°27' E 139°40'0 0.0
2018-Jun-16 21:30N 35°27' E 139°40'0 0.0
2018-Jun-16 20:58N 35°27' E 139°40'0 0.0
2018-Jun-16 20:28N 35°27' E 139°40'0 0.0
2018-Jun-16 20:00N 35°27' E 139°40'0 0.0
2018-Jun-16 19:30N 35°27' E 139°40'0 0.0
2018-Jun-16 19:00N 35°27' E 139°40'0 0.0
2018-Jun-16 18:25N 35°27' E 139°40'0 0.0
2018-Jun-16 18:00N 35°27' E 139°40'0 0.0
2018-Jun-16 17:30N 35°27' E 139°40'0 0.0
2018-Jun-16 17:00N 35°27' E 139°40'0 0.0
2018-Jun-16 16:30N 35°27' E 139°40'0 0.0
2018-Jun-16 16:00N 35°27' E 139°40'0 0.0
2018-Jun-16 15:30N 35°27' E 139°40'0 0.0
2018-Jun-16 15:00N 35°27' E 139°40'0 0.0
2018-Jun-16 14:30N 35°27' E 139°40'0 0.0
2018-Jun-16 14:00N 35°27' E 139°40'0 0.0
2018-Jun-16 13:30N 35°27' E 139°40'0 0.0
2018-Jun-16 13:00N 35°27' E 139°40'0 0.0
2018-Jun-16 12:27N 35°27' E 139°40'0 0.0
2018-Jun-16 12:00N 35°27' E 139°40'0 0.0
2018-Jun-16 11:30N 35°27' E 139°40'0 0.0
2018-Jun-16 11:00N 35°27' E 139°40'0 0.0
2018-Jun-16 10:30N 35°27' E 139°40'0 0.0
2018-Jun-16 10:00N 35°27' E 139°40'0 0.0
2018-Jun-16 09:30N 35°27' E 139°40'0 0.0
2018-Jun-16 09:00N 35°27' E 139°40'0 0.0
2018-Jun-16 08:30N 35°27' E 139°40'0 0.0
2018-Jun-16 08:00N 35°27' E 139°40'0 0.0
2018-Jun-16 07:30N 35°27' E 139°40'0 0.0
2018-Jun-16 07:00N 35°27' E 139°40'0 0.0
2018-Jun-16 06:30N 35°27' E 139°40'0 0.0
2018-Jun-16 06:00N 35°27' E 139°40'1 1.5
2018-Jun-16 05:30N 35°27' E 139°41'3 4.9
2018-Jun-16 04:49N 35°29' E 139°44'0 0.1
2018-Jun-16 04:27N 35°29' E 139°44'1 1.8
2018-Jun-16 04:00N 35°28' E 139°45'1 1.2
2018-Jun-16 03:30N 35°28' E 139°45'0 1.0
2018-Jun-16 03:00N 35°28' E 139°45'1 0.9
2018-Jun-16 02:24N 35°29' E 139°44'3 7.9
2018-Jun-16 02:00N 35°27' E 139°42'1 2.4
2018-Jun-16 01:30N 35°27' E 139°40'0 0.0
2018-Jun-16 01:00N 35°27' E 139°40'0 0.0
2018-Jun-16 00:30N 35°27' E 139°40'0 0.0
2018-Jun-16 00:00N 35°27' E 139°40'1 1.2
2018-Jun-15 23:30N 35°27' E 139°41'1 1.6
2018-Jun-15 23:00N 35°26' E 139°41'2 3.5
2018-Jun-15 22:31N 35°25' E 139°43'1 1.5
2018-Jun-15 22:00N 35°26' E 139°42'2 3.1
2018-Jun-15 21:30N 35°27' E 139°40'0 0.0
2018-Jun-15 21:00N 35°27' E 139°40'0 0.0
2018-Jun-15 20:30N 35°27' E 139°40'0 0.0
2018-Jun-15 19:59N 35°27' E 139°40'0 0.0
2018-Jun-15 19:30N 35°27' E 139°40'0 0.0
2018-Jun-15 19:00N 35°27' E 139°40'0 0.0
2018-Jun-15 18:30N 35°27' E 139°40'0 0.0
2018-Jun-15 18:00N 35°27' E 139°40'0 0.0
2018-Jun-15 17:29N 35°27' E 139°40'0 0.0
2018-Jun-15 17:00N 35°27' E 139°40'0 0.0
2018-Jun-15 16:30N 35°27' E 139°40'0 0.0
2018-Jun-15 16:00N 35°27' E 139°40'0 0.0
2018-Jun-15 15:29N 35°27' E 139°40'0 0.0
2018-Jun-15 15:00N 35°27' E 139°40'0 0.0
2018-Jun-15 14:29N 35°27' E 139°40'0 0.0
2018-Jun-15 14:00N 35°27' E 139°40'0 0.0
2018-Jun-15 13:30N 35°27' E 139°40'0 0.0
2018-Jun-15 13:00N 35°27' E 139°40'0 0.0
2018-Jun-15 12:30N 35°27' E 139°40'0 0.0
2018-Jun-15 12:00N 35°27' E 139°40'0 0.0
2018-Jun-15 11:30N 35°27' E 139°40'0 0.0
2018-Jun-15 11:00N 35°27' E 139°40'0 0.0
2018-Jun-15 10:30N 35°27' E 139°40'0 0.0
2018-Jun-15 10:00N 35°27' E 139°40'0 0.0
2018-Jun-15 09:30N 35°27' E 139°40'  
Track history (hours):
 
Tides and Currents Weather Stations Pressure Air Temp Water Temp Dewpoint Dewpoint Depression Visibility Wind Speed Wind Dir Waves Ship Positions

Tenryu Maru

Last reported at 2018-Jun-25 09:29 UTC. Time now 2018-Jun-25 09:28 UTC.
Position N 35°27' E 139°40'.

Length 34 m; draft 3.8 m.

Type: Tug. MMSI: 431101149.

Date/timePositionNaut miles runAvg speedWind from/ knotsBaromVisibWave heightAir tempDewpointWater temp
2018-Jun-25 09:29N 35°27' E 139°40'0 0.0
2018-Jun-25 09:00N 35°27' E 139°40'2 4.2
2018-Jun-25 08:30N 35°29' E 139°40'0 0.1
2018-Jun-25 08:00N 35°29' E 139°40'3 5.6
2018-Jun-25 07:30N 35°27' E 139°43'4 8.7
2018-Jun-25 07:00N 35°30' E 139°48'2 4.0
2018-Jun-25 06:30N 35°30' E 139°45'1 1.3
2018-Jun-25 05:59N 35°30' E 139°46'0 0.0
2018-Jun-25 05:18N 35°30' E 139°46'0 0.0
2018-Jun-25 04:48N 35°30' E 139°46'1 2.7
2018-Jun-25 04:30N 35°31' E 139°46'1 3.1
2018-Jun-25 04:00N 35°30' E 139°45'3 5.9
2018-Jun-25 03:30N 35°28' E 139°42'1 2.6
2018-Jun-25 03:00N 35°28' E 139°44'3 5.5
2018-Jun-25 02:30N 35°28' E 139°41'0 0.1
2018-Jun-25 02:00N 35°28' E 139°41'0 0.0
2018-Jun-25 01:30N 35°28' E 139°41'0 0.0
2018-Jun-25 01:00N 35°28' E 139°41'0 0.0
2018-Jun-25 00:30N 35°28' E 139°41'0 0.0
2018-Jun-25 00:00N 35°28' E 139°41'0 0.0
2018-Jun-24 23:30N 35°28' E 139°41'1 1.9
2018-Jun-24 23:00N 35°27' E 139°41'2 3.3
2018-Jun-24 22:30N 35°25' E 139°41'1 2.7
2018-Jun-24 22:00N 35°25' E 139°42'3 5.2
2018-Jun-24 21:31N 35°27' E 139°41'0 0.7
2018-Jun-24 21:00N 35°27' E 139°40'0 0.0
2018-Jun-24 20:28N 35°27' E 139°40'0 0.0
2018-Jun-24 20:00N 35°27' E 139°40'0 0.0
2018-Jun-24 19:30N 35°27' E 139°40'0 0.0
2018-Jun-24 19:00N 35°27' E 139°40'0 0.0
2018-Jun-24 18:30N 35°27' E 139°40'0 0.0
2018-Jun-24 18:00N 35°27' E 139°40'0 0.0
2018-Jun-24 17:29N 35°27' E 139°40'0 0.0
2018-Jun-24 17:00N 35°27' E 139°40'0 0.0
2018-Jun-24 16:27N 35°27' E 139°40'0 0.0
2018-Jun-24 16:00N 35°27' E 139°40'0 0.0
2018-Jun-24 15:29N 35°27' E 139°40'0 0.0
2018-Jun-24 15:00N 35°27' E 139°40'0 0.0
2018-Jun-24 14:30N 35°27' E 139°40'0 0.0
2018-Jun-24 13:59N 35°27' E 139°40'0 0.0
2018-Jun-24 13:30N 35°27' E 139°40'0 0.0
2018-Jun-24 13:00N 35°27' E 139°40'0 0.0
2018-Jun-24 12:30N 35°27' E 139°40'0 0.0
2018-Jun-24 12:00N 35°27' E 139°40'0 0.0
2018-Jun-24 11:30N 35°27' E 139°40'0 0.0
2018-Jun-24 11:00N 35°27' E 139°40'0 0.0
2018-Jun-24 10:29N 35°27' E 139°40'0 0.0
2018-Jun-24 10:00N 35°27' E 139°40'0 0.0
2018-Jun-24 09:30N 35°27' E 139°40'0 0.0
2018-Jun-24 08:58N 35°27' E 139°40'0 0.0
2018-Jun-24 08:30N 35°27' E 139°40'0 0.0
2018-Jun-24 08:00N 35°27' E 139°40'0 0.0
2018-Jun-24 07:30N 35°27' E 139°40'0 0.0
2018-Jun-24 07:00N 35°27' E 139°40'0 0.0
2018-Jun-24 06:30N 35°27' E 139°40'0 0.0
2018-Jun-24 06:00N 35°27' E 139°40'0 0.0
2018-Jun-24 05:30N 35°27' E 139°40'0 0.0
2018-Jun-24 05:00N 35°27' E 139°40'0 0.0
2018-Jun-24 04:30N 35°27' E 139°40'0 0.0
2018-Jun-24 03:59N 35°27' E 139°40'0 0.0
2018-Jun-24 03:30N 35°27' E 139°40'0 0.0
2018-Jun-24 02:58N 35°27' E 139°40'0 0.0
2018-Jun-24 02:30N 35°27' E 139°40'1 2.0
2018-Jun-24 02:00N 35°27' E 139°41'1 1.0
2018-Jun-24 01:30N 35°27' E 139°42'1 2.6
2018-Jun-24 01:00N 35°26' E 139°42'3 5.1
2018-Jun-24 00:30N 35°28' E 139°40'0 0.0
2018-Jun-24 00:00N 35°28' E 139°40'0 0.0
2018-Jun-23 23:30N 35°28' E 139°40'1 1.6
2018-Jun-23 23:00N 35°27' E 139°39'1 3.0
2018-Jun-23 22:30N 35°28' E 139°41'0 0.9
2018-Jun-23 22:00N 35°28' E 139°41'1 2.0
2018-Jun-23 21:30N 35°28' E 139°42'2 3.7
2018-Jun-23 20:59N 35°27' E 139°40'0 0.0
2018-Jun-23 20:30N 35°27' E 139°40'0 0.0
2018-Jun-23 20:00N 35°27' E 139°40'0 0.0
2018-Jun-23 19:30N 35°27' E 139°40'0 0.0
2018-Jun-23 19:00N 35°27' E 139°40'0 0.0
2018-Jun-23 18:28N 35°27' E 139°40'0 0.0
2018-Jun-23 18:00N 35°27' E 139°40'0 0.0
2018-Jun-23 17:30N 35°27' E 139°40'0 0.0
2018-Jun-23 17:00N 35°27' E 139°40'0 0.0
2018-Jun-23 16:28N 35°27' E 139°40'0 0.0
2018-Jun-23 16:00N 35°27' E 139°40'0 0.0
2018-Jun-23 15:30N 35°27' E 139°40'0 0.0
2018-Jun-23 15:00N 35°27' E 139°40'0 0.0
2018-Jun-23 14:29N 35°27' E 139°40'0 0.0
2018-Jun-23 14:00N 35°27' E 139°40'0 0.0
2018-Jun-23 13:30N 35°27' E 139°40'0 0.0
2018-Jun-23 13:00N 35°27' E 139°40'0 0.0
2018-Jun-23 12:30N 35°27' E 139°40'0 0.0
2018-Jun-23 12:00N 35°27' E 139°40'0 0.0
2018-Jun-23 11:30N 35°27' E 139°40'0 0.0
2018-Jun-23 11:00N 35°27' E 139°40'0 0.0
2018-Jun-23 10:30N 35°27' E 139°40'0 0.0
2018-Jun-23 10:00N 35°27' E 139°40'0 0.0
2018-Jun-23 09:30N 35°27' E 139°40'1 1.3
2018-Jun-23 09:00N 35°27' E 139°41'1 2.5
2018-Jun-23 08:30N 35°26' E 139°43'1 2.3
2018-Jun-23 08:00N 35°25' E 139°43'3 6.6
2018-Jun-23 07:30N 35°28' E 139°40'0 0.0
2018-Jun-23 07:00N 35°28' E 139°40'0 0.0
2018-Jun-23 06:30N 35°28' E 139°40'0 0.0
2018-Jun-23 05:59N 35°28' E 139°40'0 0.0
2018-Jun-23 05:30N 35°28' E 139°40'0 0.0
2018-Jun-23 04:58N 35°28' E 139°40'1 2.1
2018-Jun-23 04:30N 35°27' E 139°39'1 1.4
2018-Jun-23 04:00N 35°27' E 139°40'611.1
2018-Jun-23 03:30N 35°28' E 139°47'611.1
2018-Jun-23 02:59N 35°31' E 139°53'2 2.0
2018-Jun-23 01:46N 35°31' E 139°56'0 1.2
2018-Jun-23 01:30N 35°31' E 139°56'2 3.2
2018-Jun-23 00:59N 35°30' E 139°54'5 5.2
2018-Jun-23 00:06N 35°27' E 139°49'212.2
2018-Jun-22 23:56N 35°27' E 139°47'511.6
2018-Jun-22 23:30N 35°27' E 139°41'1 1.2
2018-Jun-22 22:59N 35°27' E 139°40'0 0.0
2018-Jun-22 22:30N 35°27' E 139°40'0 0.0
2018-Jun-22 21:59N 35°27' E 139°40'0 0.0
2018-Jun-22 21:29N 35°27' E 139°40'0 0.0
2018-Jun-22 21:00N 35°27' E 139°40'0 0.0
2018-Jun-22 20:29N 35°27' E 139°40'0 0.0
2018-Jun-22 20:00N 35°27' E 139°40'0 0.0
2018-Jun-22 19:30N 35°27' E 139°40'0 0.0
2018-Jun-22 19:00N 35°27' E 139°40'0 0.0
2018-Jun-22 18:30N 35°27' E 139°40'0 0.0
2018-Jun-22 18:00N 35°27' E 139°40'0 0.0
2018-Jun-22 17:29N 35°27' E 139°40'0 0.0
2018-Jun-22 17:00N 35°27' E 139°40'0 0.0
2018-Jun-22 16:30N 35°27' E 139°40'0 0.0
2018-Jun-22 16:00N 35°27' E 139°40'0 0.0
2018-Jun-22 15:30N 35°27' E 139°40'0 0.0
2018-Jun-22 15:00N 35°27' E 139°40'0 0.0
2018-Jun-22 14:30N 35°27' E 139°40'0 0.0
2018-Jun-22 13:59N 35°27' E 139°40'0 0.0
2018-Jun-22 13:30N 35°27' E 139°40'0 0.0
2018-Jun-22 13:00N 35°27' E 139°40'0 0.0
2018-Jun-22 12:30N 35°27' E 139°40'0 0.0
2018-Jun-22 12:00N 35°27' E 139°40'0 0.0
2018-Jun-22 11:30N 35°27' E 139°40'0 0.0
2018-Jun-22 11:00N 35°27' E 139°40'1 1.1
2018-Jun-22 10:30N 35°26' E 139°41'1 1.3
2018-Jun-22 10:00N 35°27' E 139°42'2 3.6
2018-Jun-22 09:30N 35°26' E 139°44'1 1.5
2018-Jun-22 09:00N 35°26' E 139°45'2 4.1
2018-Jun-22 08:30N 35°27' E 139°42'0 0.0
2018-Jun-22 08:00N 35°27' E 139°42'4 7.5
2018-Jun-22 07:30N 35°23' E 139°41'1 2.2
2018-Jun-22 07:00N 35°24' E 139°40'0 0.1
2018-Jun-22 06:30N 35°24' E 139°40'1 1.6
2018-Jun-22 06:00N 35°23' E 139°40'0 0.5
2018-Jun-22 05:30N 35°24' E 139°39'1 2.6
2018-Jun-22 05:00N 35°24' E 139°38'0 0.1
2018-Jun-22 04:30N 35°24' E 139°38'3 6.4
2018-Jun-22 04:00N 35°25' E 139°42'3 6.2
2018-Jun-22 03:31N 35°27' E 139°39'1 2.1
2018-Jun-22 03:00N 35°27' E 139°40'0 0.0
2018-Jun-22 02:30N 35°27' E 139°40'0 0.0
2018-Jun-22 02:00N 35°27' E 139°40'0 0.0
2018-Jun-22 01:30N 35°27' E 139°40'0 0.0
2018-Jun-22 01:00N 35°27' E 139°40'0 0.0
2018-Jun-22 00:30N 35°27' E 139°40'0 0.0
2018-Jun-22 00:00N 35°27' E 139°40'0 0.0
2018-Jun-21 23:30N 35°27' E 139°40'0 0.0
2018-Jun-21 22:58N 35°27' E 139°40'0 0.0
2018-Jun-21 22:30N 35°27' E 139°40'0 0.0
2018-Jun-21 22:00N 35°27' E 139°40'0 0.0
2018-Jun-21 21:30N 35°27' E 139°40'0 0.0
2018-Jun-21 21:00N 35°27' E 139°40'0 0.0
2018-Jun-21 20:30N 35°27' E 139°40'0 0.0
2018-Jun-21 20:00N 35°27' E 139°40'0 0.0
2018-Jun-21 19:30N 35°27' E 139°40'0 0.0
2018-Jun-21 19:01N 35°27' E 139°40'0 0.0
2018-Jun-21 18:30N 35°27' E 139°40'0 0.0
2018-Jun-21 18:00N 35°27' E 139°40'0 0.0
2018-Jun-21 17:30N 35°27' E 139°40'0 0.0
2018-Jun-21 17:00N 35°27' E 139°40'0 0.0
2018-Jun-21 16:31N 35°27' E 139°40'0 0.0
2018-Jun-21 16:00N 35°27' E 139°40'0 0.0
2018-Jun-21 15:30N 35°27' E 139°40'0 0.0
2018-Jun-21 15:00N 35°27' E 139°40'0 0.0
2018-Jun-21 14:30N 35°27' E 139°40'0 0.0
2018-Jun-21 14:00N 35°27' E 139°40'0 0.0
2018-Jun-21 13:31N 35°27' E 139°40'0 0.0
2018-Jun-21 13:00N 35°27' E 139°40'0 0.0
2018-Jun-21 12:30N 35°27' E 139°40'0 0.0
2018-Jun-21 12:00N 35°27' E 139°40'0 0.0
2018-Jun-21 11:30N 35°27' E 139°40'0 0.0
2018-Jun-21 11:00N 35°27' E 139°40'0 0.0
2018-Jun-21 10:30N 35°27' E 139°40'0 0.0
2018-Jun-21 10:00N 35°27' E 139°40'0 0.0
2018-Jun-21 09:30N 35°27' E 139°40'0 0.0
2018-Jun-21 08:58N 35°27' E 139°40'0 0.0
2018-Jun-21 08:30N 35°27' E 139°40'0 0.0
2018-Jun-21 08:00N 35°27' E 139°40'0 0.0
2018-Jun-21 07:30N 35°27' E 139°40'0 0.0
2018-Jun-21 07:00N 35°27' E 139°40'0 0.0
2018-Jun-21 06:31N 35°27' E 139°40'0 0.0
2018-Jun-21 06:00N 35°27' E 139°40'0 0.0
2018-Jun-21 05:30N 35°27' E 139°40'0 0.0
2018-Jun-21 05:00N 35°27' E 139°40'0 0.0
2018-Jun-21 04:30N 35°27' E 139°40'0 0.0
2018-Jun-21 04:00N 35°27' E 139°40'0 0.0
2018-Jun-21 03:30N 35°27' E 139°40'0 0.0
2018-Jun-21 03:00N 35°27' E 139°40'2 3.2
2018-Jun-21 02:30N 35°28' E 139°40'0 0.0
2018-Jun-21 02:00N 35°28' E 139°40'0 0.0
2018-Jun-21 01:31N 35°28' E 139°40'0 0.5
2018-Jun-21 01:00N 35°28' E 139°40'2 3.4
2018-Jun-21 00:31N 35°27' E 139°41'0 0.1
2018-Jun-21 00:00N 35°27' E 139°41'1 2.1
2018-Jun-20 23:30N 35°27' E 139°40'1 2.1
2018-Jun-20 23:01N 35°28' E 139°41'0 0.5
2018-Jun-20 22:30N 35°28' E 139°41'0 0.7
2018-Jun-20 22:01N 35°28' E 139°41'1 1.8
2018-Jun-20 21:30N 35°28' E 139°42'1 1.6
2018-Jun-20 21:00N 35°27' E 139°42'0 0.0
2018-Jun-20 20:30N 35°27' E 139°42'0 0.6
2018-Jun-20 20:00N 35°27' E 139°42'1 1.3
2018-Jun-20 19:30N 35°26' E 139°41'0 0.6
2018-Jun-20 19:00N 35°27' E 139°41'0 0.0
2018-Jun-20 18:30N 35°27' E 139°41'0 0.0
2018-Jun-20 17:56N 35°27' E 139°41'0 0.0
2018-Jun-20 17:31N 35°27' E 139°41'0 0.0
2018-Jun-20 17:00N 35°27' E 139°41'0 0.0
2018-Jun-20 16:30N 35°27' E 139°41'0 0.0
2018-Jun-20 16:00N 35°27' E 139°41'0 0.0
2018-Jun-20 15:30N 35°27' E 139°41'0 0.0
2018-Jun-20 15:00N 35°27' E 139°41'0 0.3
2018-Jun-20 14:30N 35°27' E 139°41'0 0.3
2018-Jun-20 14:00N 35°27' E 139°41'0 0.0
2018-Jun-20 13:30N 35°27' E 139°41'0 0.0
2018-Jun-20 13:00N 35°27' E 139°41'0 0.0
2018-Jun-20 12:30N 35°27' E 139°41'0 0.0
2018-Jun-20 11:59N 35°27' E 139°41'0 0.0
2018-Jun-20 11:30N 35°27' E 139°41'0 0.7
2018-Jun-20 11:00N 35°26' E 139°41'2 3.4
2018-Jun-20 10:30N 35°26' E 139°43'1 2.4
2018-Jun-20 10:00N 35°26' E 139°44'3 6.7
2018-Jun-20 09:29N 35°28' E 139°41'0 0.0
2018-Jun-20 09:00N 35°28' E 139°41'0 0.7
2018-Jun-20 08:30N 35°27' E 139°40'1 2.6
2018-Jun-20 08:00N 35°27' E 139°39'0 0.1
2018-Jun-20 07:30N 35°27' E 139°39'1 1.1
2018-Jun-20 07:00N 35°27' E 139°39'4 8.0
2018-Jun-20 06:30N 35°24' E 139°42'2 4.8
2018-Jun-20 06:01N 35°24' E 139°39'1 1.1
2018-Jun-20 05:30N 35°24' E 139°38'0 0.0
2018-Jun-20 05:00N 35°24' E 139°38'2 4.3
2018-Jun-20 04:30N 35°23' E 139°41'3 6.6
2018-Jun-20 04:00N 35°27' E 139°40'0 0.0
2018-Jun-20 03:30N 35°27' E 139°40'0 0.0
2018-Jun-20 03:00N 35°27' E 139°40'0 0.0
2018-Jun-20 02:30N 35°27' E 139°40'0 0.0
2018-Jun-20 02:00N 35°27' E 139°40'0 0.0
2018-Jun-20 01:29N 35°27' E 139°40'0 0.0
2018-Jun-20 00:58N 35°27' E 139°40'0 0.0
2018-Jun-20 00:30N 35°27' E 139°40'0 0.0
2018-Jun-20 00:00N 35°27' E 139°40'0 0.0
2018-Jun-19 23:30N 35°27' E 139°40'0 0.0
2018-Jun-19 23:00N 35°27' E 139°40'0 0.0
2018-Jun-19 22:30N 35°27' E 139°40'0 0.0
2018-Jun-19 21:59N 35°27' E 139°40'0 0.0
2018-Jun-19 21:31N 35°27' E 139°40'0 0.0
2018-Jun-19 21:00N 35°27' E 139°40'0 0.0
2018-Jun-19 20:30N 35°27' E 139°40'0 0.0
2018-Jun-19 20:00N 35°27' E 139°40'0 0.0
2018-Jun-19 19:30N 35°27' E 139°40'0 0.0
2018-Jun-19 19:00N 35°27' E 139°40'0 0.0
2018-Jun-19 18:29N 35°27' E 139°40'0 0.0
2018-Jun-19 18:00N 35°27' E 139°40'0 0.0
2018-Jun-19 17:30N 35°27' E 139°40'0 0.0
2018-Jun-19 17:00N 35°27' E 139°40'0 0.0
2018-Jun-19 16:30N 35°27' E 139°40'0 0.0
2018-Jun-19 16:00N 35°27' E 139°40'0 0.0
2018-Jun-19 15:30N 35°27' E 139°40'0 0.0
2018-Jun-19 15:00N 35°27' E 139°40'0 0.0
2018-Jun-19 14:30N 35°27' E 139°40'0 0.0
2018-Jun-19 14:00N 35°27' E 139°40'0 0.0
2018-Jun-19 13:30N 35°27' E 139°40'0 0.0
2018-Jun-19 13:00N 35°27' E 139°40'0 0.0
2018-Jun-19 12:30N 35°27' E 139°40'0 0.0
2018-Jun-19 11:59N 35°27' E 139°40'0 0.0
2018-Jun-19 11:30N 35°27' E 139°40'0 0.0
2018-Jun-19 11:00N 35°27' E 139°40'0 0.0
2018-Jun-19 10:30N 35°27' E 139°40'0 0.0
2018-Jun-19 10:00N 35°27' E 139°40'0 0.0
2018-Jun-19 09:30N 35°27' E 139°40'0 0.0
2018-Jun-19 09:00N 35°27' E 139°40'0 0.0
2018-Jun-19 08:30N 35°27' E 139°40'0 0.0
2018-Jun-19 08:00N 35°27' E 139°40'0 0.0
2018-Jun-19 07:28N 35°27' E 139°40'1 1.9
2018-Jun-19 07:00N 35°28' E 139°40'611.0
2018-Jun-19 06:30N 35°31' E 139°46'1 1.5
2018-Jun-19 06:00N 35°31' E 139°46'2 5.0
2018-Jun-19 05:31N 35°30' E 139°44'3 5.3
2018-Jun-19 05:01N 35°27' E 139°43'1 1.8
2018-Jun-19 04:31N 35°28' E 139°44'510.0
2018-Jun-19 04:01N 35°23' E 139°41'2 4.4
2018-Jun-19 03:30N 35°24' E 139°38'0 0.0
2018-Jun-19 03:00N 35°24' E 139°38'0 0.0
2018-Jun-19 02:30N 35°24' E 139°38'1 1.9
2018-Jun-19 02:01N 35°24' E 139°39'3 5.3
2018-Jun-19 01:30N 35°22' E 139°42'1 2.9
2018-Jun-19 01:00N 35°24' E 139°42'4 7.0
2018-Jun-19 00:30N 35°27' E 139°42'0 0.0
2018-Jun-19 00:00N 35°27' E 139°42'0 0.0
2018-Jun-18 23:31N 35°27' E 139°42'0 0.0
2018-Jun-18 23:01N 35°27' E 139°42'3 5.4
2018-Jun-18 22:31N 35°28' E 139°39'0 0.9
2018-Jun-18 22:01N 35°28' E 139°40'3 6.0
2018-Jun-18 21:30N 35°26' E 139°43'1 2.4
2018-Jun-18 21:00N 35°25' E 139°43'3 4.9
2018-Jun-18 20:30N 35°27' E 139°40'0 0.0
2018-Jun-18 20:00N 35°27' E 139°40'0 0.0
2018-Jun-18 19:30N 35°27' E 139°40'0 0.0
2018-Jun-18 19:00N 35°27' E 139°40'0 0.0
2018-Jun-18 18:30N 35°27' E 139°40'0 0.0
2018-Jun-18 18:00N 35°27' E 139°40'0 0.0
2018-Jun-18 17:30N 35°27' E 139°40'0 0.0
2018-Jun-18 17:00N 35°27' E 139°40'0 0.0
2018-Jun-18 16:30N 35°27' E 139°40'0 0.0
2018-Jun-18 16:00N 35°27' E 139°40'0 0.0
2018-Jun-18 15:30N 35°27' E 139°40'0 0.0
2018-Jun-18 15:00N 35°27' E 139°40'0 0.0
2018-Jun-18 14:30N 35°27' E 139°40'0 0.0
2018-Jun-18 13:58N 35°27' E 139°40'0 0.0
2018-Jun-18 13:28N 35°27' E 139°40'0 0.0
2018-Jun-18 13:00N 35°27' E 139°40'0 0.0
2018-Jun-18 12:30N 35°27' E 139°40'0 0.0
2018-Jun-18 12:00N 35°27' E 139°40'0 0.0
2018-Jun-18 11:30N 35°27' E 139°40'0 0.0
2018-Jun-18 11:00N 35°27' E 139°40'0 0.0
2018-Jun-18 10:30N 35°27' E 139°40'0 0.0
2018-Jun-18 10:00N 35°27' E 139°40'0 0.0
2018-Jun-18 09:30N 35°27' E 139°40'0 0.0
2018-Jun-18 09:00N 35°27' E 139°40'0 0.0
2018-Jun-18 08:30N 35°27' E 139°40'0 0.0
2018-Jun-18 08:00N 35°27' E 139°40'1 1.6
2018-Jun-18 07:30N 35°27' E 139°40'4 7.5
2018-Jun-18 07:00N 35°24' E 139°40'0 0.7
2018-Jun-18 06:30N 35°24' E 139°41'0 0.1
2018-Jun-18 06:00N 35°24' E 139°41'1 2.5
2018-Jun-18 05:30N 35°25' E 139°42'2 4.5
2018-Jun-18 05:00N 35°27' E 139°41'0 0.0
2018-Jun-18 04:30N 35°27' E 139°41'0 0.0
2018-Jun-18 04:00N 35°27' E 139°41'0 0.0
2018-Jun-18 03:30N 35°27' E 139°41'0 0.0
2018-Jun-18 03:00N 35°27' E 139°41'2 4.5
2018-Jun-18 02:30N 35°25' E 139°42'2 4.8
2018-Jun-18 02:00N 35°25' E 139°39'0 0.2
2018-Jun-18 01:30N 35°24' E 139°39'1 2.2
2018-Jun-18 01:00N 35°24' E 139°40'3 6.1
2018-Jun-18 00:31N 35°21' E 139°42'3 5.4
2018-Jun-18 00:00N 35°24' E 139°42'3 5.9
2018-Jun-17 23:30N 35°27' E 139°40'0 0.0
2018-Jun-17 23:00N 35°27' E 139°40'0 0.0
2018-Jun-17 22:30N 35°27' E 139°40'0 0.0
2018-Jun-17 22:00N 35°27' E 139°40'0 0.0
2018-Jun-17 21:30N 35°27' E 139°40'0 0.0
2018-Jun-17 21:00N 35°27' E 139°40'0 0.0
2018-Jun-17 20:30N 35°27' E 139°40'0 0.0
2018-Jun-17 20:00N 35°27' E 139°40'0 0.0
2018-Jun-17 19:30N 35°27' E 139°40'0 0.0
2018-Jun-17 19:00N 35°27' E 139°40'0 0.0
2018-Jun-17 18:30N 35°27' E 139°40'0 0.0
2018-Jun-17 18:00N 35°27' E 139°40'0 0.0
2018-Jun-17 17:30N 35°27' E 139°40'0 0.0
2018-Jun-17 17:00N 35°27' E 139°40'0 0.0
2018-Jun-17 16:30N 35°27' E 139°40'0 0.0
2018-Jun-17 16:00N 35°27' E 139°40'0 0.0
2018-Jun-17 15:30N 35°27' E 139°40'0 0.0
2018-Jun-17 15:00N 35°27' E 139°40'0 0.0
2018-Jun-17 14:30N 35°27' E 139°40'0 0.0
2018-Jun-17 13:59N 35°27' E 139°40'0 0.0
2018-Jun-17 13:30N 35°27' E 139°40'0 0.0
2018-Jun-17 13:00N 35°27' E 139°40'0 0.0
2018-Jun-17 12:30N 35°27' E 139°40'0 0.0
2018-Jun-17 12:00N 35°27' E 139°40'0 0.0
2018-Jun-17 11:30N 35°27' E 139°40'0 0.0
2018-Jun-17 11:00N 35°27' E 139°40'0 0.0
2018-Jun-17 10:30N 35°27' E 139°40'0 0.0
2018-Jun-17 10:00N 35°27' E 139°40'0 0.0
2018-Jun-17 09:30N 35°27' E 139°40'1 2.8
2018-Jun-17 09:00N 35°27' E 139°42'1 2.8
2018-Jun-17 08:30N 35°28' E 139°41'1 2.3
2018-Jun-17 08:00N 35°28' E 139°41'0 0.0
2018-Jun-17 07:30N 35°28' E 139°41'0 0.0
2018-Jun-17 07:00N 35°28' E 139°41'0 0.0
2018-Jun-17 06:30N 35°28' E 139°41'0 0.0
2018-Jun-17 06:00N 35°28' E 139°41'1 2.0
2018-Jun-17 05:30N 35°27' E 139°39'0 0.0
2018-Jun-17 05:00N 35°27' E 139°39'3 6.7
2018-Jun-17 04:30N 35°28' E 139°43'1 1.9
2018-Jun-17 03:59N 35°28' E 139°44'0 0.1
2018-Jun-17 03:29N 35°28' E 139°44'0 0.5
2018-Jun-17 02:59N 35°28' E 139°44'1 3.0
2018-Jun-17 02:30N 35°27' E 139°45'1 2.5
2018-Jun-17 02:00N 35°28' E 139°45'0 0.8
2018-Jun-17 01:30N 35°28' E 139°45'0 0.0
2018-Jun-17 01:00N 35°28' E 139°45'0 0.0
2018-Jun-17 00:30N 35°28' E 139°45'2 4.7
2018-Jun-17 00:00N 35°30' E 139°47'2 3.0
2018-Jun-16 23:30N 35°30' E 139°45'4 8.5
2018-Jun-16 23:00N 35°28' E 139°40'1 2.8
2018-Jun-16 22:30N 35°27' E 139°40'0 0.0
2018-Jun-16 22:00N 35°27' E 139°40'0 0.0
2018-Jun-16 21:30N 35°27' E 139°40'0 0.0
2018-Jun-16 20:58N 35°27' E 139°40'0 0.0
2018-Jun-16 20:28N 35°27' E 139°40'0 0.0
2018-Jun-16 20:00N 35°27' E 139°40'0 0.0
2018-Jun-16 19:30N 35°27' E 139°40'0 0.0
2018-Jun-16 19:00N 35°27' E 139°40'0 0.0
2018-Jun-16 18:25N 35°27' E 139°40'0 0.0
2018-Jun-16 18:00N 35°27' E 139°40'0 0.0
2018-Jun-16 17:30N 35°27' E 139°40'0 0.0
2018-Jun-16 17:00N 35°27' E 139°40'0 0.0
2018-Jun-16 16:30N 35°27' E 139°40'0 0.0
2018-Jun-16 16:00N 35°27' E 139°40'0 0.0
2018-Jun-16 15:30N 35°27' E 139°40'0 0.0
2018-Jun-16 15:00N 35°27' E 139°40'0 0.0
2018-Jun-16 14:30N 35°27' E 139°40'0 0.0
2018-Jun-16 14:00N 35°27' E 139°40'0 0.0
2018-Jun-16 13:30N 35°27' E 139°40'0 0.0
2018-Jun-16 13:00N 35°27' E 139°40'0 0.0
2018-Jun-16 12:27N 35°27' E 139°40'0 0.0
2018-Jun-16 12:00N 35°27' E 139°40'0 0.0
2018-Jun-16 11:30N 35°27' E 139°40'0 0.0
2018-Jun-16 11:00N 35°27' E 139°40'0 0.0
2018-Jun-16 10:30N 35°27' E 139°40'0 0.0
2018-Jun-16 10:00N 35°27' E 139°40'0 0.0
2018-Jun-16 09:30N 35°27' E 139°40'0 0.0
2018-Jun-16 09:00N 35°27' E 139°40'0 0.0
2018-Jun-16 08:30N 35°27' E 139°40'0 0.0
2018-Jun-16 08:00N 35°27' E 139°40'0 0.0
2018-Jun-16 07:30N 35°27' E 139°40'0 0.0
2018-Jun-16 07:00N 35°27' E 139°40'0 0.0
2018-Jun-16 06:30N 35°27' E 139°40'0 0.0
2018-Jun-16 06:00N 35°27' E 139°40'1 1.5
2018-Jun-16 05:30N 35°27' E 139°41'3 4.9
2018-Jun-16 04:49N 35°29' E 139°44'0 0.1
2018-Jun-16 04:27N 35°29' E 139°44'1 1.8
2018-Jun-16 04:00N 35°28' E 139°45'1 1.2
2018-Jun-16 03:30N 35°28' E 139°45'0 1.0
2018-Jun-16 03:00N 35°28' E 139°45'1 0.9
2018-Jun-16 02:24N 35°29' E 139°44'3 7.9
2018-Jun-16 02:00N 35°27' E 139°42'1 2.4
2018-Jun-16 01:30N 35°27' E 139°40'0 0.0
2018-Jun-16 01:00N 35°27' E 139°40'0 0.0
2018-Jun-16 00:30N 35°27' E 139°40'0 0.0
2018-Jun-16 00:00N 35°27' E 139°40'1 1.2
2018-Jun-15 23:30N 35°27' E 139°41'1 1.6
2018-Jun-15 23:00N 35°26' E 139°41'2 3.5
2018-Jun-15 22:31N 35°25' E 139°43'1 1.5
2018-Jun-15 22:00N 35°26' E 139°42'2 3.1
2018-Jun-15 21:30N 35°27' E 139°40'0 0.0
2018-Jun-15 21:00N 35°27' E 139°40'0 0.0
2018-Jun-15 20:30N 35°27' E 139°40'0 0.0
2018-Jun-15 19:59N 35°27' E 139°40'0 0.0
2018-Jun-15 19:30N 35°27' E 139°40'0 0.0
2018-Jun-15 19:00N 35°27' E 139°40'0 0.0
2018-Jun-15 18:30N 35°27' E 139°40'0 0.0
2018-Jun-15 18:00N 35°27' E 139°40'0 0.0
2018-Jun-15 17:29N 35°27' E 139°40'0 0.0
2018-Jun-15 17:00N 35°27' E 139°40'0 0.0
2018-Jun-15 16:30N 35°27' E 139°40'0 0.0
2018-Jun-15 16:00N 35°27' E 139°40'0 0.0
2018-Jun-15 15:29N 35°27' E 139°40'0 0.0
2018-Jun-15 15:00N 35°27' E 139°40'0 0.0
2018-Jun-15 14:29N 35°27' E 139°40'0 0.0
2018-Jun-15 14:00N 35°27' E 139°40'0 0.0
2018-Jun-15 13:30N 35°27' E 139°40'0 0.0
2018-Jun-15 13:00N 35°27' E 139°40'0 0.0
2018-Jun-15 12:30N 35°27' E 139°40'0 0.0
2018-Jun-15 12:00N 35°27' E 139°40'0 0.0
2018-Jun-15 11:30N 35°27' E 139°40'0 0.0
2018-Jun-15 11:00N 35°27' E 139°40'0 0.0
2018-Jun-15 10:30N 35°27' E 139°40'0 0.0
2018-Jun-15 10:00N 35°27' E 139°40'0 0.0
2018-Jun-15 09:30N 35°27' E 139°40'  

Dump ship's entire track history